sensor_id;sensor_type;location;lat;lon;timestamp;pressure;altitude;pressure_sealevel;temperature;humidity
34482;BME280;20720;48.886;9.388;2022-10-04T00:01:21;99067.53;;;8.74;100.00
34482;BME280;20720;48.886;9.388;2022-10-04T00:03:48;99067.06;;;8.70;100.00
34482;BME280;20720;48.886;9.388;2022-10-04T00:06:17;99077.06;;;8.67;100.00
34482;BME280;20720;48.886;9.388;2022-10-04T00:08:44;99066.91;;;8.72;100.00
34482;BME280;20720;48.886;9.388;2022-10-04T00:11:13;99065.91;;;8.73;100.00
34482;BME280;20720;48.886;9.388;2022-10-04T00:13:42;99066.25;;;8.70;100.00
34482;BME280;20720;48.886;9.388;2022-10-04T00:16:11;99065.41;;;8.69;100.00
34482;BME280;20720;48.886;9.388;2022-10-04T00:18:44;99058.31;;;8.31;100.00
34482;BME280;20720;48.886;9.388;2022-10-04T00:21:09;99055.50;;;8.48;100.00
34482;BME280;20720;48.886;9.388;2022-10-04T00:26:01;99047.19;;;8.37;100.00
34482;BME280;20720;48.886;9.388;2022-10-04T00:28:28;99055.19;;;8.43;100.00
34482;BME280;20720;48.886;9.388;2022-10-04T00:31:08;99062.41;;;8.41;100.00
34482;BME280;20720;48.886;9.388;2022-10-04T00:41:34;99056.16;;;8.42;100.00
34482;BME280;20720;48.886;9.388;2022-10-04T00:44:03;99057.34;;;8.40;100.00
34482;BME280;20720;48.886;9.388;2022-10-04T00:46:29;99055.69;;;8.31;100.00
34482;BME280;20720;48.886;9.388;2022-10-04T00:48:55;99056.69;;;8.38;100.00
34482;BME280;20720;48.886;9.388;2022-10-04T00:51:33;99054.56;;;8.33;100.00
34482;BME280;20720;48.886;9.388;2022-10-04T01:01:25;99046.53;;;8.19;100.00
34482;BME280;20720;48.886;9.388;2022-10-04T01:03:51;99050.84;;;7.80;100.00
34482;BME280;20720;48.886;9.388;2022-10-04T01:06:17;99028.44;;;7.85;100.00
34482;BME280;20720;48.886;9.388;2022-10-04T01:11:49;99038.22;;;8.07;100.00
34482;BME280;20720;48.886;9.388;2022-10-04T01:14:25;99029.88;;;7.96;100.00
34482;BME280;20720;48.886;9.388;2022-10-04T01:16:53;99026.09;;;8.06;100.00
34482;BME280;20720;48.886;9.388;2022-10-04T01:21:46;99018.25;;;8.14;100.00
34482;BME280;20720;48.886;9.388;2022-10-04T01:26:38;99033.31;;;8.04;100.00
34482;BME280;20720;48.886;9.388;2022-10-04T01:29:08;99034.94;;;8.05;100.00
34482;BME280;20720;48.886;9.388;2022-10-04T01:31:42;99032.31;;;7.97;100.00
34482;BME280;20720;48.886;9.388;2022-10-04T01:34:07;99035.28;;;7.86;100.00
34482;BME280;20720;48.886;9.388;2022-10-04T01:36:36;99037.25;;;7.92;100.00
34482;BME280;20720;48.886;9.388;2022-10-04T01:39:01;99035.94;;;7.88;100.00
34482;BME280;20720;48.886;9.388;2022-10-04T01:41:29;99033.00;;;7.75;100.00
34482;BME280;20720;48.886;9.388;2022-10-04T01:43:57;99027.78;;;7.75;100.00
34482;BME280;20720;48.886;9.388;2022-10-04T01:46:24;99021.06;;;7.64;100.00
34482;BME280;20720;48.886;9.388;2022-10-04T01:48:52;99014.69;;;7.67;100.00
34482;BME280;20720;48.886;9.388;2022-10-04T01:51:29;99011.91;;;7.69;100.00
34482;BME280;20720;48.886;9.388;2022-10-04T01:53:57;99007.19;;;7.72;100.00
34482;BME280;20720;48.886;9.388;2022-10-04T01:56:37;98997.69;;;7.47;100.00
34482;BME280;20720;48.886;9.388;2022-10-04T01:59:06;98990.19;;;7.68;100.00
34482;BME280;20720;48.886;9.388;2022-10-04T02:01:39;98988.06;;;7.80;100.00
34482;BME280;20720;48.886;9.388;2022-10-04T02:04:41;98993.28;;;7.80;100.00
34482;BME280;20720;48.886;9.388;2022-10-04T02:06:59;98986.09;;;7.74;100.00
34482;BME280;20720;48.886;9.388;2022-10-04T02:09:30;98986.44;;;7.63;100.00
34482;BME280;20720;48.886;9.388;2022-10-04T02:11:56;98982.34;;;7.68;100.00
34482;BME280;20720;48.886;9.388;2022-10-04T02:14:24;98986.41;;;7.71;100.00
34482;BME280;20720;48.886;9.388;2022-10-04T02:16:51;98981.66;;;7.82;100.00
34482;BME280;20720;48.886;9.388;2022-10-04T02:19:18;98983.31;;;7.83;100.00
34482;BME280;20720;48.886;9.388;2022-10-04T02:21:44;98972.84;;;7.83;100.00
34482;BME280;20720;48.886;9.388;2022-10-04T02:24:09;98971.88;;;7.60;100.00
34482;BME280;20720;48.886;9.388;2022-10-04T02:26:36;98977.09;;;7.60;100.00
34482;BME280;20720;48.886;9.388;2022-10-04T02:29:01;98978.06;;;7.67;100.00
34482;BME280;20720;48.886;9.388;2022-10-04T02:31:27;98978.41;;;7.56;100.00
34482;BME280;20720;48.886;9.388;2022-10-04T02:34:11;98973.84;;;7.58;100.00
34482;BME280;20720;48.886;9.388;2022-10-04T02:36:36;98974.81;;;7.65;100.00
34482;BME280;20720;48.886;9.388;2022-10-04T02:39:05;98973.97;;;7.64;100.00
34482;BME280;20720;48.886;9.388;2022-10-04T02:41:32;98978.06;;;7.59;100.00
34482;BME280;20720;48.886;9.388;2022-10-04T02:46:27;98972.53;;;7.70;100.00
34482;BME280;20720;48.886;9.388;2022-10-04T02:48:56;98969.75;;;7.63;100.00
34482;BME280;20720;48.886;9.388;2022-10-04T02:53:51;98967.31;;;7.54;100.00
34482;BME280;20720;48.886;9.388;2022-10-04T02:56:19;98974.97;;;7.55;100.00
34482;BME280;20720;48.886;9.388;2022-10-04T02:58:46;98972.03;;;7.42;100.00
34482;BME280;20720;48.886;9.388;2022-10-04T03:01:15;98975.47;;;7.59;100.00
34482;BME280;20720;48.886;9.388;2022-10-04T03:03:41;98978.41;;;7.48;100.00
34482;BME280;20720;48.886;9.388;2022-10-04T03:06:11;98985.88;;;7.03;100.00
34482;BME280;20720;48.886;9.388;2022-10-04T03:11:07;98975.94;;;7.38;100.00
34482;BME280;20720;48.886;9.388;2022-10-04T03:13:33;98976.47;;;7.34;100.00
34482;BME280;20720;48.886;9.388;2022-10-04T03:16:01;98970.09;;;7.28;100.00
34482;BME280;20720;48.886;9.388;2022-10-04T03:18:26;98980.03;;;7.33;100.00
34482;BME280;20720;48.886;9.388;2022-10-04T03:20:52;98973.84;;;7.34;100.00
34482;BME280;20720;48.886;9.388;2022-10-04T03:23:18;98955.06;;;7.30;100.00
34482;BME280;20720;48.886;9.388;2022-10-04T03:25:51;98945.03;;;6.86;100.00
34482;BME280;20720;48.886;9.388;2022-10-04T03:28:19;98936.25;;;7.27;100.00
34482;BME280;20720;48.886;9.388;2022-10-04T03:30:44;98937.56;;;7.39;100.00
34482;BME280;20720;48.886;9.388;2022-10-04T03:33:15;98942.47;;;7.26;100.00
34482;BME280;20720;48.886;9.388;2022-10-04T03:35:40;98932.66;;;7.20;100.00
34482;BME280;20720;48.886;9.388;2022-10-04T03:38:06;98941.00;;;7.39;100.00
34482;BME280;20720;48.886;9.388;2022-10-04T03:40:33;98942.16;;;7.45;100.00
34482;BME280;20720;48.886;9.388;2022-10-04T03:43:01;98947.03;;;7.48;100.00
34482;BME280;20720;48.886;9.388;2022-10-04T03:45:28;98946.38;;;7.54;100.00
34482;BME280;20720;48.886;9.388;2022-10-04T03:47:53;98946.72;;;7.43;100.00
34482;BME280;20720;48.886;9.388;2022-10-04T03:50:29;98954.91;;;7.40;100.00
34482;BME280;20720;48.886;9.388;2022-10-04T03:53:07;98955.53;;;7.42;100.00
34482;BME280;20720;48.886;9.388;2022-10-04T03:55:38;98955.53;;;7.42;100.00
34482;BME280;20720;48.886;9.388;2022-10-04T03:58:04;98960.28;;;7.30;100.00
34482;BME280;20720;48.886;9.388;2022-10-04T04:00:31;98965.34;;;7.32;100.00
34482;BME280;20720;48.886;9.388;2022-10-04T04:03:01;98969.59;;;7.33;100.00
34482;BME280;20720;48.886;9.388;2022-10-04T04:05:31;98969.09;;;7.29;100.00
34482;BME280;20720;48.886;9.388;2022-10-04T04:08:06;98972.84;;;7.27;100.00
34482;BME280;20720;48.886;9.388;2022-10-04T04:10:34;98972.53;;;7.22;100.00
34482;BME280;20720;48.886;9.388;2022-10-04T04:13:02;98964.03;;;7.20;100.00
34482;BME280;20720;48.886;9.388;2022-10-04T04:15:31;98960.75;;;7.18;100.00
34482;BME280;20720;48.886;9.388;2022-10-04T04:18:01;98943.13;;;7.20;100.00
34482;BME280;20720;48.886;9.388;2022-10-04T04:20:28;98939.22;;;7.08;100.00
34482;BME280;20720;48.886;9.388;2022-10-04T04:22:59;98934.31;;;7.37;100.00
34482;BME280;20720;48.886;9.388;2022-10-04T04:25:26;98937.88;;;7.20;100.00
34482;BME280;20720;48.886;9.388;2022-10-04T04:27:55;98933.97;;;7.08;100.00
34482;BME280;20720;48.886;9.388;2022-10-04T04:30:24;98927.63;;;7.26;100.00
34482;BME280;20720;48.886;9.388;2022-10-04T04:32:50;98934.94;;;7.31;100.00
34482;BME280;20720;48.886;9.388;2022-10-04T04:35:29;98940.66;;;7.18;100.00
34482;BME280;20720;48.886;9.388;2022-10-04T04:38:27;98937.72;;;7.29;100.00
34482;BME280;20720;48.886;9.388;2022-10-04T04:40:46;98941.97;;;7.38;100.00
34482;BME280;20720;48.886;9.388;2022-10-04T04:43:13;98949.69;;;7.40;100.00
34482;BME280;20720;48.886;9.388;2022-10-04T04:45:40;98951.28;;;7.41;100.00
34482;BME280;20720;48.886;9.388;2022-10-04T04:48:06;98956.34;;;7.34;100.00
34482;BME280;20720;48.886;9.388;2022-10-04T04:50:35;98955.88;;;7.47;100.00
34482;BME280;20720;48.886;9.388;2022-10-04T04:53:09;98951.63;;;7.38;100.00
34482;BME280;20720;48.886;9.388;2022-10-04T04:55:43;98952.91;;;7.42;100.00
34482;BME280;20720;48.886;9.388;2022-10-04T04:58:13;98958.66;;;7.37;100.00
34482;BME280;20720;48.886;9.388;2022-10-04T05:00:46;98958.81;;;7.36;100.00
34482;BME280;20720;48.886;9.388;2022-10-04T05:03:15;98961.41;;;7.28;100.00
34482;BME280;20720;48.886;9.388;2022-10-04T05:05:45;98961.91;;;7.31;100.00
34482;BME280;20720;48.886;9.388;2022-10-04T05:10:39;98967.59;;;7.27;100.00
34482;BME280;20720;48.886;9.388;2022-10-04T05:13:07;98975.16;;;7.30;100.00
34482;BME280;20720;48.886;9.388;2022-10-04T05:15:39;98980.53;;;7.28;100.00
34482;BME280;20720;48.886;9.388;2022-10-04T05:20:50;98978.56;;;7.22;100.00
34482;BME280;20720;48.886;9.388;2022-10-04T05:23:17;98983.31;;;7.19;100.00
34482;BME280;20720;48.886;9.388;2022-10-04T05:25:42;98988.84;;;7.24;100.00
34482;BME280;20720;48.886;9.388;2022-10-04T05:28:11;98982.31;;;7.28;100.00
34482;BME280;20720;48.886;9.388;2022-10-04T05:38:52;98979.03;;;7.18;100.00
34482;BME280;20720;48.886;9.388;2022-10-04T05:41:25;98978.31;;;6.84;100.00
34482;BME280;20720;48.886;9.388;2022-10-04T05:43:55;98975.97;;;7.30;100.00
34482;BME280;20720;48.886;9.388;2022-10-04T05:48:48;98970.19;;;7.03;100.00
34482;BME280;20720;48.886;9.388;2022-10-04T05:51:26;98958.63;;;7.61;100.00
34482;BME280;20720;48.886;9.388;2022-10-04T05:53:52;98956.84;;;7.70;100.00
34482;BME280;20720;48.886;9.388;2022-10-04T06:06:56;98949.97;;;7.69;100.00
34482;BME280;20720;48.886;9.388;2022-10-04T06:24:34;98968.06;;;9.19;100.00
34482;BME280;20720;48.886;9.388;2022-10-04T06:27:10;98971.09;;;9.30;100.00
34482;BME280;20720;48.886;9.388;2022-10-04T06:29:42;98971.56;;;9.11;100.00
34482;BME280;20720;48.886;9.388;2022-10-04T06:45:02;98979.13;;;10.03;100.00
34482;BME280;20720;48.886;9.388;2022-10-04T06:47:49;98978.66;;;10.22;100.00
34482;BME280;20720;48.886;9.388;2022-10-04T06:50:26;98983.00;;;10.15;100.00
34482;BME280;20720;48.886;9.388;2022-10-04T06:53:03;98987.97;;;10.39;100.00
34482;BME280;20720;48.886;9.388;2022-10-04T07:00:32;98995.91;;;10.75;100.00
34482;BME280;20720;48.886;9.388;2022-10-04T07:04:01;98999.81;;;10.94;100.00
34482;BME280;20720;48.886;9.388;2022-10-04T07:05:57;98999.97;;;11.07;100.00
34482;BME280;20720;48.886;9.388;2022-10-04T07:08:36;99005.06;;;11.15;100.00
34482;BME280;20720;48.886;9.388;2022-10-04T07:21:26;99009.72;;;11.13;100.00
34482;BME280;20720;48.886;9.388;2022-10-04T07:23:57;99012.25;;;10.56;100.00
34482;BME280;20720;48.886;9.388;2022-10-04T07:28:57;99004.31;;;11.00;100.00
34482;BME280;20720;48.886;9.388;2022-10-04T07:31:43;99014.03;;;11.77;100.00
34482;BME280;20720;48.886;9.388;2022-10-04T07:34:10;99021.28;;;11.96;100.00
34482;BME280;20720;48.886;9.388;2022-10-04T07:39:13;99027.84;;;12.35;100.00
34482;BME280;20720;48.886;9.388;2022-10-04T07:41:46;99021.03;;;12.47;100.00
34482;BME280;20720;48.886;9.388;2022-10-04T07:49:23;99023.34;;;12.63;100.00
34482;BME280;20720;48.886;9.388;2022-10-04T07:52:01;99026.91;;;12.83;100.00
34482;BME280;20720;48.886;9.388;2022-10-04T07:56:59;99028.94;;;13.28;100.00
34482;BME280;20720;48.886;9.388;2022-10-04T08:04:43;99040.34;;;13.42;100.00
34482;BME280;20720;48.886;9.388;2022-10-04T08:09:50;99025.16;;;13.57;100.00
34482;BME280;20720;48.886;9.388;2022-10-04T08:12:36;99026.78;;;14.49;100.00
34482;BME280;20720;48.886;9.388;2022-10-04T08:15:28;99019.16;;;14.85;100.00
34482;BME280;20720;48.886;9.388;2022-10-04T08:18:09;99025.59;;;14.19;100.00
34482;BME280;20720;48.886;9.388;2022-10-04T08:21:00;99026.19;;;13.88;100.00
34482;BME280;20720;48.886;9.388;2022-10-04T08:28:42;99009.81;;;16.39;100.00
34482;BME280;20720;48.886;9.388;2022-10-04T08:31:33;99031.09;;;16.08;100.00
34482;BME280;20720;48.886;9.388;2022-10-04T08:36:41;99021.94;;;16.71;100.00
34482;BME280;20720;48.886;9.388;2022-10-04T08:39:27;99023.16;;;16.50;100.00
34482;BME280;20720;48.886;9.388;2022-10-04T08:42:19;99023.25;;;15.94;100.00
34482;BME280;20720;48.886;9.388;2022-10-04T09:03:00;99062.94;;;19.16;99.93
34482;BME280;20720;48.886;9.388;2022-10-04T09:10:37;99070.00;;;19.61;97.19
34482;BME280;20720;48.886;9.388;2022-10-04T09:15:54;99073.06;;;20.15;92.15
34482;BME280;20720;48.886;9.388;2022-10-04T09:26:33;99060.94;;;20.95;85.93
34482;BME280;20720;48.886;9.388;2022-10-04T09:34:35;99055.59;;;20.74;81.63
34482;BME280;20720;48.886;9.388;2022-10-04T09:42:32;99053.00;;;21.43;79.98
34482;BME280;20720;48.886;9.388;2022-10-04T09:47:43;99050.75;;;21.57;78.13
34482;BME280;20720;48.886;9.388;2022-10-04T09:50:16;99051.09;;;23.07;73.39
34482;BME280;20720;48.886;9.388;2022-10-04T10:32:04;99060.09;;;20.73;83.62
34482;BME280;20720;48.886;9.388;2022-10-04T10:42:58;99068.78;;;21.67;71.29
34482;BME280;20720;48.886;9.388;2022-10-04T10:48:14;99052.72;;;22.62;72.23
34482;BME280;20720;48.886;9.388;2022-10-04T10:56:12;99054.56;;;24.65;65.25
34482;BME280;20720;48.886;9.388;2022-10-04T10:58:59;99048.16;;;24.36;64.19
34482;BME280;20720;48.886;9.388;2022-10-04T11:12:14;99044.56;;;24.91;62.24
34482;BME280;20720;48.886;9.388;2022-10-04T11:22:47;99026.91;;;24.60;61.49
34482;BME280;20720;48.886;9.388;2022-10-04T11:25:25;99023.50;;;25.72;57.70
34482;BME280;20720;48.886;9.388;2022-10-04T11:35:59;99017.81;;;26.69;54.60
34482;BME280;20720;48.886;9.388;2022-10-04T11:46:26;99005.19;;;26.02;56.86
34482;BME280;20720;48.886;9.388;2022-10-04T12:01:44;98991.41;;;25.32;56.60
34482;BME280;20720;48.886;9.388;2022-10-04T12:15:12;98973.34;;;28.02;50.87
34482;BME280;20720;48.886;9.388;2022-10-04T12:17:57;98977.38;;;25.78;54.02
34482;BME280;20720;48.886;9.388;2022-10-04T12:38:49;98962.28;;;25.44;57.65
34482;BME280;20720;48.886;9.388;2022-10-04T12:48:56;98957.28;;;28.38;47.23
34482;BME280;20720;48.886;9.388;2022-10-04T12:54:00;98945.25;;;26.44;51.08
34482;BME280;20720;48.886;9.388;2022-10-04T13:04:33;98933.97;;;27.64;48.17
34482;BME280;20720;48.886;9.388;2022-10-04T13:07:15;98941.94;;;30.87;42.24
34482;BME280;20720;48.886;9.388;2022-10-04T13:20:37;98949.00;;;31.22;41.86
34482;BME280;20720;48.886;9.388;2022-10-04T13:23:09;98938.13;;;31.05;41.19
34482;BME280;20720;48.886;9.388;2022-10-04T13:28:17;98941.81;;;31.17;36.74
34482;BME280;20720;48.886;9.388;2022-10-04T13:31:01;98941.81;;;30.52;37.13
34482;BME280;20720;48.886;9.388;2022-10-04T13:33:32;98947.56;;;30.59;37.16
34482;BME280;20720;48.886;9.388;2022-10-04T13:36:08;98935.91;;;31.24;36.87
34482;BME280;20720;48.886;9.388;2022-10-04T13:38:54;98948.53;;;30.02;38.83
34482;BME280;20720;48.886;9.388;2022-10-04T13:44:11;98940.06;;;30.65;39.07
34482;BME280;20720;48.886;9.388;2022-10-04T13:49:06;98935.56;;;30.21;39.51
34482;BME280;20720;48.886;9.388;2022-10-04T13:54:44;98938.75;;;30.85;40.51
34482;BME280;20720;48.886;9.388;2022-10-04T13:57:30;98945.72;;;26.28;49.61
34482;BME280;20720;48.886;9.388;2022-10-04T14:00:03;98932.84;;;29.11;43.58
34482;BME280;20720;48.886;9.388;2022-10-04T14:02:47;98929.81;;;30.53;41.75
34482;BME280;20720;48.886;9.388;2022-10-04T14:11:08;98940.53;;;29.04;42.42
34482;BME280;20720;48.886;9.388;2022-10-04T14:24:10;98917.78;;;30.07;40.00
34482;BME280;20720;48.886;9.388;2022-10-04T14:34:35;98901.06;;;31.77;37.09
34482;BME280;20720;48.886;9.388;2022-10-04T15:02:48;98904.94;;;32.89;33.51
34482;BME280;20720;48.886;9.388;2022-10-04T15:05:24;98900.38;;;29.99;38.20
34482;BME280;20720;48.886;9.388;2022-10-04T15:07:55;98902.81;;;31.73;35.86
34482;BME280;20720;48.886;9.388;2022-10-04T15:10:30;98898.69;;;31.59;34.79
34482;BME280;20720;48.886;9.388;2022-10-04T15:13:06;98899.56;;;30.77;36.32
34482;BME280;20720;48.886;9.388;2022-10-04T15:18:12;98898.91;;;30.72;37.47
34482;BME280;20720;48.886;9.388;2022-10-04T15:25:44;98886.16;;;31.92;35.18
34482;BME280;20720;48.886;9.388;2022-10-04T15:46:24;98866.41;;;23.66;56.75
34482;BME280;20720;48.886;9.388;2022-10-04T16:00:40;98872.78;;;23.00;65.12
34482;BME280;20720;48.886;9.388;2022-10-04T16:02:57;98885.38;;;21.49;70.98
34482;BME280;20720;48.886;9.388;2022-10-04T16:05:36;98875.88;;;22.05;71.61
34482;BME280;20720;48.886;9.388;2022-10-04T16:13:25;98871.91;;;22.12;73.79
34482;BME280;20720;48.886;9.388;2022-10-04T16:23:41;98860.56;;;21.53;79.51
34482;BME280;20720;48.886;9.388;2022-10-04T16:33:50;98850.63;;;20.91;85.70
34482;BME280;20720;48.886;9.388;2022-10-04T16:36:20;98853.72;;;20.56;87.24
34482;BME280;20720;48.886;9.388;2022-10-04T16:38:50;98865.34;;;20.45;88.44
34482;BME280;20720;48.886;9.388;2022-10-04T16:41:40;98869.56;;;20.41;90.65
34482;BME280;20720;48.886;9.388;2022-10-04T16:44:21;98868.56;;;20.47;91.05
34482;BME280;20720;48.886;9.388;2022-10-04T16:46:48;98862.78;;;20.33;92.93
34482;BME280;20720;48.886;9.388;2022-10-04T16:57:12;98864.84;;;19.38;100.00
34482;BME280;20720;48.886;9.388;2022-10-04T17:12:17;98874.94;;;18.92;100.00
34482;BME280;20720;48.886;9.388;2022-10-04T17:19:40;98893.91;;;17.93;100.00
34482;BME280;20720;48.886;9.388;2022-10-04T17:22:26;98891.13;;;17.88;100.00
34482;BME280;20720;48.886;9.388;2022-10-04T17:25:01;98887.75;;;18.04;100.00
34482;BME280;20720;48.886;9.388;2022-10-04T17:35:00;98874.28;;;17.82;100.00
34482;BME280;20720;48.886;9.388;2022-10-04T17:37:46;98873.22;;;17.71;100.00
34482;BME280;20720;48.886;9.388;2022-10-04T17:40:21;98863.06;;;17.68;100.00
34482;BME280;20720;48.886;9.388;2022-10-04T17:48:06;98852.16;;;16.94;100.00
34482;BME280;20720;48.886;9.388;2022-10-04T17:50:55;98856.94;;;17.15;100.00
34482;BME280;20720;48.886;9.388;2022-10-04T17:53:47;98844.75;;;16.84;100.00
34482;BME280;20720;48.886;9.388;2022-10-04T17:56:35;98831.00;;;16.76;100.00
34482;BME280;20720;48.886;9.388;2022-10-04T17:59:08;98825.16;;;16.56;100.00
34482;BME280;20720;48.886;9.388;2022-10-04T18:01:46;98823.53;;;16.55;100.00
34482;BME280;20720;48.886;9.388;2022-10-04T18:04:23;98823.56;;;16.37;100.00
34482;BME280;20720;48.886;9.388;2022-10-04T18:09:21;98813.91;;;16.72;100.00
34482;BME280;20720;48.886;9.388;2022-10-04T18:11:57;98814.56;;;16.56;100.00
34482;BME280;20720;48.886;9.388;2022-10-04T18:16:55;98827.47;;;16.64;100.00
34482;BME280;20720;48.886;9.388;2022-10-04T18:19:34;98832.25;;;16.73;100.00
34482;BME280;20720;48.886;9.388;2022-10-04T18:22:03;98838.09;;;16.64;100.00
34482;BME280;20720;48.886;9.388;2022-10-04T18:24:34;98840.16;;;16.62;100.00
34482;BME280;20720;48.886;9.388;2022-10-04T18:26:59;98840.63;;;16.59;100.00
34482;BME280;20720;48.886;9.388;2022-10-04T18:29:39;98839.91;;;16.52;100.00
34482;BME280;20720;48.886;9.388;2022-10-04T18:35:01;98841.19;;;16.43;100.00
34482;BME280;20720;48.886;9.388;2022-10-04T18:39:52;98851.31;;;16.52;100.00
34482;BME280;20720;48.886;9.388;2022-10-04T18:42:27;98862.63;;;16.48;100.00
34482;BME280;20720;48.886;9.388;2022-10-04T18:44:59;98858.16;;;16.42;100.00
34482;BME280;20720;48.886;9.388;2022-10-04T18:47:29;98855.22;;;16.32;100.00
34482;BME280;20720;48.886;9.388;2022-10-04T18:49:57;98855.69;;;16.29;100.00
34482;BME280;20720;48.886;9.388;2022-10-04T18:55:10;98859.34;;;16.28;100.00
34482;BME280;20720;48.886;9.388;2022-10-04T18:57:38;98859.06;;;16.18;100.00
34482;BME280;20720;48.886;9.388;2022-10-04T19:00:23;98862.16;;;15.96;100.00
34482;BME280;20720;48.886;9.388;2022-10-04T19:08:38;98861.69;;;15.99;100.00
34482;BME280;20720;48.886;9.388;2022-10-04T19:11:18;98858.19;;;15.87;100.00
34482;BME280;20720;48.886;9.388;2022-10-04T19:18:57;98878.47;;;15.93;100.00
34482;BME280;20720;48.886;9.388;2022-10-04T19:21:38;98870.09;;;16.15;100.00
34482;BME280;20720;48.886;9.388;2022-10-04T19:26:41;98879.47;;;15.99;100.00
34482;BME280;20720;48.886;9.388;2022-10-04T19:31:45;98884.19;;;15.97;100.00
34482;BME280;20720;48.886;9.388;2022-10-04T19:34:13;98888.34;;;15.86;100.00
34482;BME280;20720;48.886;9.388;2022-10-04T19:41:54;98886.88;;;15.72;100.00
34482;BME280;20720;48.886;9.388;2022-10-04T19:49:35;98884.75;;;15.56;100.00
34482;BME280;20720;48.886;9.388;2022-10-04T19:54:46;98889.78;;;15.64;100.00
34482;BME280;20720;48.886;9.388;2022-10-04T19:57:14;98896.16;;;15.81;100.00
34482;BME280;20720;48.886;9.388;2022-10-04T19:59:43;98893.84;;;15.67;100.00
34482;BME280;20720;48.886;9.388;2022-10-04T20:02:10;98894.03;;;15.65;100.00
34482;BME280;20720;48.886;9.388;2022-10-04T20:04:35;98895.13;;;15.58;100.00
34482;BME280;20720;48.886;9.388;2022-10-04T20:07:05;98888.78;;;15.34;100.00
34482;BME280;20720;48.886;9.388;2022-10-04T20:12:05;98901.81;;;15.36;100.00
34482;BME280;20720;48.886;9.388;2022-10-04T20:14:50;98896.25;;;15.13;100.00
34482;BME280;20720;48.886;9.388;2022-10-04T20:17:28;98909.44;;;15.50;100.00
34482;BME280;20720;48.886;9.388;2022-10-04T20:19:54;98909.28;;;15.70;100.00
34482;BME280;20720;48.886;9.388;2022-10-04T20:22:29;98910.34;;;15.44;100.00
34482;BME280;20720;48.886;9.388;2022-10-04T20:24:54;98912.97;;;15.44;100.00
34482;BME280;20720;48.886;9.388;2022-10-04T20:35:56;98920.66;;;15.21;100.00
34482;BME280;20720;48.886;9.388;2022-10-04T20:43:22;98928.28;;;15.42;100.00
34482;BME280;20720;48.886;9.388;2022-10-04T20:45:33;98924.69;;;15.24;100.00
34482;BME280;20720;48.886;9.388;2022-10-04T20:48:10;98934.00;;;15.33;100.00
34482;BME280;20720;48.886;9.388;2022-10-04T20:50:37;98940.66;;;15.10;100.00
34482;BME280;20720;48.886;9.388;2022-10-04T20:53:17;98939.66;;;15.12;100.00
34482;BME280;20720;48.886;9.388;2022-10-04T20:55:43;98939.81;;;15.17;100.00
34482;BME280;20720;48.886;9.388;2022-10-04T21:01:00;98940.88;;;15.09;100.00
34482;BME280;20720;48.886;9.388;2022-10-04T21:03:30;98938.72;;;14.93;100.00
34482;BME280;20720;48.886;9.388;2022-10-04T21:06:03;98941.75;;;14.96;100.00
34482;BME280;20720;48.886;9.388;2022-10-04T21:08:28;98944.41;;;14.96;100.00
34482;BME280;20720;48.886;9.388;2022-10-04T21:13:39;98949.91;;;14.95;100.00
34482;BME280;20720;48.886;9.388;2022-10-04T21:16:05;98944.09;;;14.80;100.00
34482;BME280;20720;48.886;9.388;2022-10-04T21:18:31;98943.78;;;14.57;100.00
34482;BME280;20720;48.886;9.388;2022-10-04T21:20:56;98949.44;;;14.60;100.00
34482;BME280;20720;48.886;9.388;2022-10-04T21:23:25;98948.94;;;14.83;100.00
34482;BME280;20720;48.886;9.388;2022-10-04T21:26:16;98953.63;;;14.81;100.00
34482;BME280;20720;48.886;9.388;2022-10-04T21:28:39;98948.03;;;14.64;100.00
34482;BME280;20720;48.886;9.388;2022-10-04T21:31:04;98950.47;;;14.59;100.00
34482;BME280;20720;48.886;9.388;2022-10-04T21:33:29;98947.47;;;14.43;100.00
34482;BME280;20720;48.886;9.388;2022-10-04T21:35:55;98954.84;;;14.28;100.00
34482;BME280;20720;48.886;9.388;2022-10-04T21:38:20;98944.66;;;14.25;100.00
34482;BME280;20720;48.886;9.388;2022-10-04T21:40:45;98934.53;;;13.95;100.00
34482;BME280;20720;48.886;9.388;2022-10-04T21:43:10;98933.91;;;14.06;100.00
34482;BME280;20720;48.886;9.388;2022-10-04T21:45:35;98929.69;;;13.73;100.00
34482;BME280;20720;48.886;9.388;2022-10-04T21:48:01;98920.34;;;13.83;100.00
34482;BME280;20720;48.886;9.388;2022-10-04T21:50:26;98925.81;;;13.82;100.00
34482;BME280;20720;48.886;9.388;2022-10-04T21:52:51;98925.63;;;13.83;100.00
34482;BME280;20720;48.886;9.388;2022-10-04T21:55:16;98936.16;;;13.96;100.00
34482;BME280;20720;48.886;9.388;2022-10-04T21:57:41;98937.19;;;14.02;100.00
34482;BME280;20720;48.886;9.388;2022-10-04T22:00:07;98944.31;;;13.75;100.00
34482;BME280;20720;48.886;9.388;2022-10-04T22:02:32;98935.78;;;13.73;100.00
34482;BME280;20720;48.886;9.388;2022-10-04T22:04:57;98934.97;;;13.60;100.00
34482;BME280;20720;48.886;9.388;2022-10-04T22:07:23;98924.63;;;13.45;100.00
34482;BME280;20720;48.886;9.388;2022-10-04T22:09:48;98928.06;;;13.52;100.00
34482;BME280;20720;48.886;9.388;2022-10-04T22:12:13;98922.16;;;13.50;100.00
34482;BME280;20720;48.886;9.388;2022-10-04T22:14:38;98921.78;;;13.66;100.00
34482;BME280;20720;48.886;9.388;2022-10-04T22:17:03;98920.34;;;13.57;100.00
34482;BME280;20720;48.886;9.388;2022-10-04T22:19:28;98928.47;;;13.62;100.00
34482;BME280;20720;48.886;9.388;2022-10-04T22:21:54;98919.94;;;13.54;100.00
34482;BME280;20720;48.886;9.388;2022-10-04T22:24:19;98908.78;;;13.45;100.00
34482;BME280;20720;48.886;9.388;2022-10-04T22:26:45;98903.69;;;13.24;100.00
34482;BME280;20720;48.886;9.388;2022-10-04T22:29:14;98897.41;;;13.32;100.00
34482;BME280;20720;48.886;9.388;2022-10-04T22:31:40;98895.16;;;13.22;100.00
34482;BME280;20720;48.886;9.388;2022-10-04T22:34:07;98887.44;;;13.40;100.00
34482;BME280;20720;48.886;9.388;2022-10-04T22:36:36;98881.34;;;13.07;100.00